Littleton, CO

09:56 PM MDT del 27 Aprile 2015 (GMT -0600)
Denver | | Change Station
CLOSE
Current Station
Aeroporto
Location: Denver,
Altitudine: 5430 ft
Stazioni meteo nelle vicinanze

Alt. 5430 ft 39.85 °N, 104.66 °W | Updated 1 hour ago

Coperto
Coperto
44 °F
Sembra 42 °F
N
4
Vento Variabile Vento da NE

Oggi
Massima -- | Minima -- °F
--% Possibilità di precip.
Ieri
Massima -- | Minima -- °F
Precip. -- in
6:06 AM 7:49 PM
Gobba a ponente, 70% visible
Pressione 30.29 in
Visibilità 10.0 miglia
Nuvole Coperto 4900 ft
Raffreddamento del vento 42 °F
Punto di rugiada 40 °F
Umidità 85%
Piovosità 0.15 in
Spessore del manto nevoso Non disponibile.
Raggi UV 0 fuori da 12
Polline 3.20 fuori da 12
Qualità dell'aria Non disponibile.
Flu Activity Sporadic
METAR KDEN 280253Z 04003KT 10SM OVC049 07/04 A3032 RMK AO2 SLP256 T00670044 53013

More Conditions Fewer Conditions

Pressione 30.29 in
Visibilità 10.0 miglia
Nuvole Coperto 4900 ft
Raffreddamento del vento 42 °F
Punto di rugiada 40 °F
Umidità 85%
Piovosità 0.15 in
Spessore del manto nevoso Non disponibile.
Raggi UV 0 fuori da 12
Polline 3.20 fuori da 12
Qualità dell'aria Non disponibile.
Flu Activity Sporadic
METAR KDEN 280253Z 04003KT 10SM OVC049 07/04 A3032 RMK AO2 SLP256 T00670044 53013

More Conditions Fewer Conditions

10-Day Weather Forecast

Almanac

Astronomia

Apr. 27, 2015 Alba Tramonto
Ora attuale
Crepuscolo civile
Crepuscolo nautico
Crepuscolo astronomico
Luna
Estensione della luce visibile
Lunghezza del giorno
Tomorrow will be .
, % of the Moon is Illuminated

Gli estremi di oggi

State Highs State Lows

Community

WunderPhotos

Upload Photos

1,817,557 foto caricate!

WunderBlogs® & News

Nearby

Qualità dell'aria

  Qualità dell'aria Indice AQ Inquinante
Not available.

Profondità neve

Stazione Profondità Altitudine

Attività sismica

Città  Distanza Mag. Data & Ora
Minimo Magnitudo Mostrato è 2.5.

Temperature delle acque costiere

Località Temperatura

Stations

Stazioni meteo nelle vicinanze

Ubicazione della stazione Temp. Raffreddamento del vento Punto di rugiada Umidità Vento Precip. Alt. Aggiornato Tipo